Time;durP1;ratioP1;P1;durP2;ratioP2;P2;SDS_P1;SDS_P2;PMS_P1;PMS_P2;Temp;Humidity;BMP_temperature;BMP_pressure;BME280_temperature;BME280_humidity;BME280_pressure;Samples;Min_cycle;Max_cycle;Signal;HPM_P1;HPM_P2
2021/07/18 00:01:46;;;;;;;3.08;1.90;;;22.80;99.90;;;;;;4991531;28;20054;-76
2021/07/18 00:04:13;;;;;;;3.13;1.75;;;22.80;99.90;;;;;;4991650;28;20037;-76
2021/07/18 00:06:38;;;;;;;2.47;1.70;;;22.80;99.90;;;;;;4992498;28;20489;-76
2021/07/18 00:09:05;;;;;;;3.22;1.88;;;22.80;99.90;;;;;;4991950;28;20022;-76
2021/07/18 00:11:30;;;;;;;3.60;2.03;;;22.80;99.90;;;;;;4991756;28;20085;-77
2021/07/18 00:13:56;;;;;;;4.05;2.20;;;22.80;99.90;;;;;;4991510;28;20449;-76
2021/07/18 00:16:22;;;;;;;3.53;1.73;;;22.80;99.90;;;;;;4990801;28;20050;-76
2021/07/18 00:18:47;;;;;;;2.42;1.58;;;22.80;99.90;;;;;;4991571;28;20030;-75
2021/07/18 00:21:13;;;;;;;2.92;1.90;;;22.70;99.90;;;;;;4991003;28;20417;-76
2021/07/18 00:23:39;;;;;;;4.80;2.30;;;22.80;99.90;;;;;;4992008;28;20494;-75
2021/07/18 00:26:05;;;;;;;3.13;2.05;;;22.70;99.90;;;;;;4991633;28;20022;-76
2021/07/18 00:28:31;;;;;;;2.10;1.65;;;22.80;99.90;;;;;;4989491;28;20034;-76
2021/07/18 00:30:57;;;;;;;4.53;2.30;;;22.80;99.90;;;;;;4990928;28;20454;-76
2021/07/18 00:33:23;;;;;;;4.15;2.17;;;22.70;99.90;;;;;;4991752;28;20553;-75
2021/07/18 00:35:48;;;;;;;3.60;1.85;;;22.70;99.90;;;;;;4991347;28;20022;-75
2021/07/18 00:38:14;;;;;;;3.53;2.28;;;22.70;99.90;;;;;;4991270;28;20062;-76
2021/07/18 00:40:40;;;;;;;2.63;1.67;;;22.70;99.90;;;;;;4991538;28;20042;-77
2021/07/18 00:43:05;;;;;;;2.13;1.58;;;22.70;99.90;;;;;;4991159;28;20026;-76
2021/07/18 00:45:31;;;;;;;2.78;1.80;;;22.70;99.90;;;;;;4991306;28;20066;-76
2021/07/18 00:47:57;;;;;;;2.92;1.80;;;22.70;99.90;;;;;;4991322;28;20015;-76
2021/07/18 00:50:24;;;;;;;2.90;1.70;;;22.70;99.90;;;;;;4991209;28;20034;-75
2021/07/18 00:52:51;;;;;;;1.73;1.42;;;22.70;99.90;;;;;;4991400;28;20030;-75
2021/07/18 00:55:17;;;;;;;3.70;1.90;;;22.70;99.90;;;;;;4991050;28;20030;-75
2021/07/18 00:57:45;;;;;;;2.38;1.83;;;22.70;99.90;;;;;;4991151;28;20053;-76
2021/07/18 01:00:13;;;;;;;2.83;1.98;;;22.70;99.90;;;;;;4990558;28;20545;-76
2021/07/18 01:02:39;;;;;;;2.95;1.92;;;22.70;99.90;;;;;;4991537;28;20061;-76
2021/07/18 01:05:10;;;;;;;3.13;1.73;;;22.70;99.90;;;;;;4991806;28;20482;-77
2021/07/18 01:07:36;;;;;;;4.10;2.20;;;22.60;99.90;;;;;;4991991;28;20023;-75
2021/07/18 01:10:05;;;;;;;4.20;1.75;;;22.60;99.90;;;;;;4991461;28;20117;-77
2021/07/18 01:12:32;;;;;;;5.65;1.98;;;22.60;99.90;;;;;;4991066;28;20085;-75
2021/07/18 01:14:58;;;;;;;3.60;2.08;;;22.60;99.90;;;;;;4993711;28;20030;-75
2021/07/18 01:17:23;;;;;;;2.92;1.98;;;22.60;99.90;;;;;;4994677;28;20414;-75
2021/07/18 01:19:49;;;;;;;2.42;1.52;;;22.60;99.90;;;;;;4994269;28;20041;-76
2021/07/18 01:22:15;;;;;;;2.08;1.63;;;22.60;99.90;;;;;;5009863;28;20030;-76
2021/07/18 01:24:41;;;;;;;3.58;1.77;;;22.60;99.90;;;;;;5009905;28;20037;-76
2021/07/18 01:27:06;;;;;;;2.58;1.90;;;22.60;99.90;;;;;;4995590;28;20101;-76
2021/07/18 01:29:34;;;;;;;2.78;1.67;;;22.50;99.90;;;;;;4994359;28;20035;-75
2021/07/18 01:32:00;;;;;;;3.50;1.90;;;22.50;99.90;;;;;;4994520;28;20417;-76
2021/07/18 01:34:26;;;;;;;2.88;1.85;;;22.50;99.90;;;;;;4994695;28;20025;-76
2021/07/18 01:36:52;;;;;;;2.55;1.85;;;22.60;99.90;;;;;;4994605;28;20109;-75
2021/07/18 01:39:19;;;;;;;2.72;1.80;;;22.50;99.90;;;;;;4994639;28;20065;-76
2021/07/18 01:41:47;;;;;;;2.17;1.65;;;22.60;99.90;;;;;;4994778;28;20036;-76
2021/07/18 01:44:12;;;;;;;2.47;1.65;;;22.50;99.90;;;;;;4994074;28;20138;-76
2021/07/18 01:46:38;;;;;;;2.65;1.60;;;22.50;99.90;;;;;;4994839;28;20490;-75
2021/07/18 01:49:06;;;;;;;2.97;1.70;;;22.50;99.90;;;;;;4994227;28;20375;-76
2021/07/18 01:51:32;;;;;;;2.95;1.73;;;22.50;99.90;;;;;;4994985;28;20371;-75
2021/07/18 01:53:59;;;;;;;2.70;1.77;;;22.50;99.90;;;;;;4993709;28;20553;-76
2021/07/18 01:56:26;;;;;;;4.30;1.90;;;22.50;99.90;;;;;;4994564;28;20034;-76
2021/07/18 01:58:53;;;;;;;2.72;1.80;;;22.50;99.90;;;;;;4992658;28;20398;-75
2021/07/18 02:01:27;;;;;;;3.15;1.88;;;22.50;99.90;;;;;;4993745;28;20030;-77
2021/07/18 02:03:54;;;;;;;3.35;1.75;;;22.50;99.90;;;;;;4993818;28;20034;-75
2021/07/18 02:06:21;;;;;;;2.60;1.65;;;22.50;99.90;;;;;;4994396;28;20072;-76
2021/07/18 02:08:49;;;;;;;4.30;1.98;;;22.40;99.90;;;;;;4993933;28;20479;-76
2021/07/18 02:11:16;;;;;;;2.38;1.73;;;22.50;99.90;;;;;;4994199;28;20026;-76
2021/07/18 02:13:44;;;;;;;2.55;1.73;;;22.50;99.90;;;;;;4993869;28;20045;-76
2021/07/18 02:16:10;;;;;;;2.83;1.60;;;22.40;99.90;;;;;;4994206;28;20026;-76
2021/07/18 02:18:35;;;;;;;2.65;1.70;;;22.40;99.90;;;;;;4993954;28;20038;-76
2021/07/18 02:21:01;;;;;;;4.18;1.80;;;22.40;99.90;;;;;;4993220;28;20030;-76
2021/07/18 02:23:27;;;;;;;3.28;1.90;;;22.40;99.90;;;;;;4994148;28;20049;-75
2021/07/18 02:25:52;;;;;;;2.92;1.67;;;22.40;99.90;;;;;;4992861;28;20053;-75
2021/07/18 02:28:18;;;;;;;4.38;1.98;;;22.40;99.90;;;;;;4993580;28;20501;-75
2021/07/18 02:30:43;;;;;;;2.83;1.83;;;22.40;99.90;;;;;;4992835;28;20030;-75
2021/07/18 02:33:09;;;;;;;2.92;1.50;;;22.40;99.90;;;;;;4993878;28;20027;-74
2021/07/18 02:35:35;;;;;;;3.35;2.00;;;22.40;99.90;;;;;;4993561;28;20113;-75
2021/07/18 02:38:01;;;;;;;2.47;1.67;;;22.30;99.90;;;;;;4993547;28;20115;-75
2021/07/18 02:40:27;;;;;;;3.42;1.55;;;22.40;99.90;;;;;;4993628;28;20041;-75
2021/07/18 02:42:53;;;;;;;3.58;1.83;;;22.30;99.90;;;;;;4993357;28;20105;-75
2021/07/18 02:45:21;;;;;;;4.60;1.77;;;22.30;99.90;;;;;;4993147;28;20041;-76
2021/07/18 02:47:47;;;;;;;2.25;1.58;;;22.30;99.90;;;;;;4993105;28;20026;-75
2021/07/18 02:50:16;;;;;;;2.80;1.50;;;22.30;99.90;;;;;;4993655;28;20097;-76
2021/07/18 02:52:42;;;;;;;2.60;1.75;;;22.30;99.90;;;;;;4991942;28;20026;-75
2021/07/18 02:55:10;;;;;;;2.35;1.50;;;22.30;99.90;;;;;;4993227;28;20026;-75
2021/07/18 02:57:35;;;;;;;2.75;1.55;;;22.30;99.90;;;;;;4993301;28;20033;-76
2021/07/18 03:00:12;;;;;;;3.38;1.65;;;22.30;99.90;;;;;;4991560;28;20030;-76
2021/07/18 03:02:38;;;;;;;3.25;1.85;;;22.30;99.90;;;;;;4990057;28;20022;-76
2021/07/18 03:05:05;;;;;;;2.53;1.52;;;22.30;99.90;;;;;;4992973;28;20034;-75
2021/07/18 03:07:32;;;;;;;3.05;2.00;;;22.30;99.90;;;;;;5007924;28;20384;-76
2021/07/18 03:09:57;;;;;;;2.60;1.83;;;22.30;99.90;;;;;;4993163;28;20499;-76
2021/07/18 03:12:23;;;;;;;2.78;1.60;;;22.30;99.90;;;;;;4992380;28;20113;-75
2021/07/18 03:14:49;;;;;;;2.60;1.90;;;22.30;99.90;;;;;;4993070;28;20037;-76
2021/07/18 03:17:15;;;;;;;2.22;1.67;;;22.30;99.90;;;;;;4992844;28;20387;-76
2021/07/18 03:19:41;;;;;;;2.60;1.65;;;22.20;99.90;;;;;;4991768;28;20081;-76
2021/07/18 03:22:07;;;;;;;2.25;1.77;;;22.20;99.90;;;;;;5008439;28;20046;-76
2021/07/18 03:24:33;;;;;;;2.00;1.33;;;22.20;99.90;;;;;;4992452;28;20050;-76
2021/07/18 03:26:58;;;;;;;3.33;2.13;;;22.20;99.90;;;;;;4992511;28;20398;-76
2021/07/18 03:29:25;;;;;;;2.28;1.85;;;22.20;99.90;;;;;;4992803;28;20084;-76
2021/07/18 03:31:50;;;;;;;2.05;1.42;;;22.20;99.90;;;;;;4987805;28;20112;-75
2021/07/18 03:34:16;;;;;;;2.58;1.88;;;22.20;99.90;;;;;;4992100;28;20514;-75
2021/07/18 03:36:42;;;;;;;2.65;1.98;;;22.20;99.90;;;;;;4992398;28;20031;-76
2021/07/18 03:39:07;;;;;;;3.22;1.88;;;22.20;99.90;;;;;;5007727;28;20041;-75
2021/07/18 03:41:33;;;;;;;2.05;1.35;;;22.20;99.90;;;;;;4991528;28;20038;-76
2021/07/18 03:43:59;;;;;;;2.60;1.60;;;22.20;99.90;;;;;;4991665;28;20030;-76
2021/07/18 03:46:24;;;;;;;3.70;1.75;;;22.20;99.90;;;;;;4992188;28;20042;-76
2021/07/18 03:48:50;;;;;;;3.95;1.90;;;22.20;99.90;;;;;;4992330;28;20033;-76
2021/07/18 03:51:15;;;;;;;2.90;1.83;;;22.10;99.90;;;;;;4992340;28;20030;-76
2021/07/18 03:53:41;;;;;;;3.03;1.73;;;22.10;99.90;;;;;;4991931;28;20510;-76
2021/07/18 03:56:09;;;;;;;2.65;1.45;;;22.10;99.90;;;;;;4992373;28;20426;-76
2021/07/18 03:58:34;;;;;;;2.40;1.70;;;22.20;99.90;;;;;;4992120;28;20505;-76
2021/07/18 04:01:00;;;;;;;3.90;1.77;;;22.10;99.90;;;;;;4992202;28;20068;-76
2021/07/18 04:03:27;;;;;;;1.92;1.45;;;22.10;99.90;;;;;;4992109;28;20022;-75
2021/07/18 04:05:53;;;;;;;3.72;1.88;;;22.10;99.90;;;;;;5006624;28;20589;-75
2021/07/18 04:08:18;;;;;;;3.10;1.92;;;22.10;99.90;;;;;;4991857;28;20109;-76
2021/07/18 04:10:44;;;;;;;4.07;1.80;;;22.10;99.90;;;;;;4991629;28;20035;-75
2021/07/18 04:13:10;;;;;;;2.75;1.80;;;22.10;99.90;;;;;;4992152;28;20022;-76
2021/07/18 04:15:35;;;;;;;2.67;1.58;;;22.10;99.90;;;;;;4991959;28;20487;-75
2021/07/18 04:18:09;;;;;;;2.45;1.75;;;22.10;99.90;;;;;;4991891;28;20022;-75
2021/07/18 04:20:35;;;;;;;2.45;1.98;;;22.10;99.90;;;;;;4991386;28;20518;-75
2021/07/18 04:23:00;;;;;;;3.20;1.88;;;22.10;99.90;;;;;;4990067;28;20050;-75
2021/07/18 04:25:26;;;;;;;3.40;1.92;;;22.10;99.90;;;;;;4991579;28;20494;-76
2021/07/18 04:27:52;;;;;;;2.60;1.80;;;22.10;99.90;;;;;;4991381;28;20022;-75
2021/07/18 04:30:17;;;;;;;3.50;2.03;;;22.10;99.90;;;;;;4991475;28;20491;-76
2021/07/18 04:32:43;;;;;;;3.40;2.33;;;22.10;99.90;;;;;;4991539;28;20030;-76
2021/07/18 04:35:09;;;;;;;3.75;2.00;;;22.00;99.90;;;;;;4991708;28;20035;-75
2021/07/18 04:37:38;;;;;;;3.92;2.10;;;22.10;99.90;;;;;;4991593;28;20022;-75
2021/07/18 04:40:05;;;;;;;2.38;1.80;;;22.00;99.80;;;;;;4989576;28;20040;-75
2021/07/18 04:42:31;;;;;;;2.78;1.70;;;22.10;99.90;;;;;;4989997;28;20022;-75
2021/07/18 04:44:57;;;;;;;3.38;1.90;;;22.10;99.80;;;;;;4991277;28;20479;-75
2021/07/18 04:47:23;;;;;;;2.10;1.77;;;22.00;99.70;;;;;;4991849;28;20057;-75
2021/07/18 04:49:50;;;;;;;2.63;1.90;;;22.00;99.70;;;;;;5008862;28;20050;-74
2021/07/18 04:52:17;;;;;;;2.63;1.50;;;22.00;99.70;;;;;;4995913;28;20092;-75
2021/07/18 04:54:43;;;;;;;3.40;1.83;;;22.00;99.80;;;;;;4994785;28;20022;-75
2021/07/18 04:57:09;;;;;;;2.92;1.60;;;22.00;99.70;;;;;;4995523;28;20487;-76
2021/07/18 04:59:35;;;;;;;2.30;1.40;;;22.00;99.70;;;;;;4995251;28;20057;-75
2021/07/18 05:02:01;;;;;;;2.65;1.67;;;22.00;99.70;;;;;;4994930;28;20061;-74
2021/07/18 05:04:26;;;;;;;1.88;1.55;;;22.00;99.70;;;;;;4995057;28;20105;-75
2021/07/18 05:06:52;;;;;;;2.90;1.80;;;22.00;99.60;;;;;;4994845;28;20035;-75
2021/07/18 05:09:18;;;;;;;2.65;1.77;;;22.00;99.60;;;;;;4995384;28;20018;-75
2021/07/18 05:11:43;;;;;;;1.98;1.70;;;22.00;99.60;;;;;;4994868;28;20406;-75
2021/07/18 05:14:09;;;;;;;3.08;1.95;;;22.00;99.90;;;;;;4994961;28;20046;-75
2021/07/18 05:16:35;;;;;;;2.42;1.70;;;21.90;99.70;;;;;;4995475;28;20037;-75
2021/07/18 05:19:00;;;;;;;3.15;2.15;;;22.00;99.80;;;;;;4994946;28;20443;-75
2021/07/18 05:21:26;;;;;;;2.67;1.83;;;22.00;99.90;;;;;;4995015;28;20492;-75
2021/07/18 05:23:52;;;;;;;2.53;1.50;;;21.90;99.90;;;;;;4994889;28;20394;-74
2021/07/18 05:26:17;;;;;;;2.67;1.80;;;22.00;99.90;;;;;;4994424;28;20046;-75
2021/07/18 05:28:43;;;;;;;2.85;1.95;;;21.90;99.90;;;;;;4994827;28;20030;-75
2021/07/18 05:31:09;;;;;;;2.70;1.77;;;21.90;99.90;;;;;;4994975;28;20030;-74
2021/07/18 05:33:34;;;;;;;3.20;1.88;;;21.90;99.90;;;;;;4994837;28;20018;-74
2021/07/18 05:36:00;;;;;;;3.15;1.63;;;21.90;99.90;;;;;;4994566;28;20041;-75
2021/07/18 05:38:26;;;;;;;4.38;2.17;;;21.90;99.90;;;;;;4994323;28;20568;-75
2021/07/18 05:40:51;;;;;;;3.28;1.60;;;21.90;99.90;;;;;;4994280;28;20114;-74
2021/07/18 05:43:17;;;;;;;2.60;2.15;;;21.90;99.90;;;;;;4994225;28;20509;-74
2021/07/18 05:45:42;;;;;;;2.35;1.58;;;21.90;99.90;;;;;;4994520;28;20463;-75
2021/07/18 05:48:08;;;;;;;3.28;1.58;;;21.90;99.90;;;;;;4994993;28;20022;-76
2021/07/18 05:50:34;;;;;;;2.28;1.58;;;21.90;99.90;;;;;;4994298;28;20022;-75
2021/07/18 05:52:59;;;;;;;3.50;1.67;;;21.90;99.80;;;;;;4994232;28;20364;-75
2021/07/18 05:55:25;;;;;;;2.92;1.63;;;21.90;99.80;;;;;;4994340;28;20038;-75
2021/07/18 05:57:51;;;;;;;2.20;1.50;;;21.90;99.80;;;;;;4993518;28;20069;-75
2021/07/18 06:00:17;;;;;;;2.55;1.50;;;21.90;99.70;;;;;;4992740;28;20068;-75
2021/07/18 06:02:43;;;;;;;3.65;1.90;;;21.90;99.70;;;;;;4994471;28;20026;-75
2021/07/18 06:05:10;;;;;;;3.08;1.73;;;21.90;99.70;;;;;;4994346;28;20061;-75
2021/07/18 06:07:39;;;;;;;6.28;2.10;;;21.90;99.60;;;;;;4993999;28;20367;-77
2021/07/18 06:10:06;;;;;;;7.15;1.90;;;21.90;99.60;;;;;;4993706;28;20026;-76
2021/07/18 06:12:32;;;;;;;3.10;1.85;;;21.90;99.60;;;;;;4993416;28;20076;-75
2021/07/18 06:14:58;;;;;;;4.35;1.73;;;21.90;99.50;;;;;;4994137;28;20058;-76
2021/07/18 06:17:24;;;;;;;2.75;1.80;;;21.90;99.50;;;;;;4994034;28;20022;-76
2021/07/18 06:19:50;;;;;;;2.63;1.80;;;21.90;99.80;;;;;;4993439;28;20561;-76
2021/07/18 06:22:15;;;;;;;2.42;1.85;;;21.90;99.60;;;;;;4993654;28;20014;-76
2021/07/18 06:24:41;;;;;;;2.20;1.58;;;21.90;99.50;;;;;;4993492;28;20521;-75
2021/07/18 06:27:07;;;;;;;2.70;1.67;;;21.90;99.50;;;;;;4994548;28;20393;-75
2021/07/18 06:29:33;;;;;;;2.25;1.58;;;21.90;99.50;;;;;;4993551;28;20072;-75
2021/07/18 06:31:59;;;;;;;2.53;1.58;;;21.90;99.50;;;;;;4991839;28;20510;-76
2021/07/18 06:34:25;;;;;;;2.58;1.25;;;21.80;99.50;;;;;;5008166;28;20057;-76
2021/07/18 06:36:52;;;;;;;2.75;1.73;;;21.90;99.50;;;;;;4993043;28;20022;-75
2021/07/18 06:39:18;;;;;;;2.50;1.80;;;21.90;99.50;;;;;;4993276;28;20046;-75
2021/07/18 06:41:44;;;;;;;3.22;1.92;;;21.90;99.50;;;;;;4993021;28;20026;-76
2021/07/18 06:44:10;;;;;;;13.05;7.43;;;21.90;99.50;;;;;;4992961;28;20475;-77
2021/07/18 06:46:36;;;;;;;16.10;9.13;;;21.80;99.90;;;;;;5009057;28;20390;-77
2021/07/18 06:49:02;;;;;;;13.95;10.52;;;21.80;99.90;;;;;;4992978;28;20031;-77
2021/07/18 06:51:27;;;;;;;17.30;10.77;;;21.70;99.90;;;;;;5008657;28;20045;-78
2021/07/18 06:53:53;;;;;;;16.27;10.60;;;21.70;99.90;;;;;;4992019;28;20022;-78
2021/07/18 06:56:19;;;;;;;17.30;10.32;;;21.70;99.90;;;;;;5002009;28;20065;-77
2021/07/18 06:58:44;;;;;;;13.75;9.75;;;21.60;99.90;;;;;;5012453;28;20034;-77
2021/07/18 07:01:10;;;;;;;15.35;10.15;;;21.60;99.90;;;;;;5012718;28;20048;-75
2021/07/18 07:03:36;;;;;;;12.65;9.23;;;21.60;99.90;;;;;;5013063;28;20025;-76
2021/07/18 07:06:02;;;;;;;14.02;9.27;;;21.60;99.90;;;;;;5002094;28;20030;-76
2021/07/18 07:08:29;;;;;;;12.57;8.88;;;21.60;99.90;;;;;;4974053;28;20479;-76
2021/07/18 07:10:55;;;;;;;11.00;8.57;;;21.60;99.90;;;;;;4981684;28;20030;-77
2021/07/18 07:13:20;;;;;;;13.43;9.10;;;21.60;99.90;;;;;;4992634;28;20026;-76
2021/07/18 07:15:46;;;;;;;15.38;8.10;;;21.60;99.90;;;;;;4992962;28;20394;-77
2021/07/18 07:18:12;;;;;;;18.20;9.73;;;21.60;99.90;;;;;;4973903;28;20090;-77
2021/07/18 07:20:37;;;;;;;16.38;9.20;;;21.60;99.90;;;;;;5006301;28;20573;-77
2021/07/18 07:23:03;;;;;;;11.20;8.38;;;21.60;99.90;;;;;;4975610;28;20081;-76
2021/07/18 07:25:29;;;;;;;11.77;8.10;;;21.60;99.90;;;;;;4983223;28;20034;-76
2021/07/18 07:27:56;;;;;;;11.40;7.18;;;21.60;99.90;;;;;;4992801;28;20045;-77
2021/07/18 07:30:21;;;;;;;10.57;6.93;;;21.70;99.90;;;;;;5006299;28;20030;-76
2021/07/18 07:32:47;;;;;;;10.57;6.35;;;21.70;99.90;;;;;;5004470;28;20037;-76
2021/07/18 07:35:14;;;;;;;14.13;8.23;;;21.70;99.90;;;;;;4985404;28;20126;-75
2021/07/18 07:37:41;;;;;;;13.50;6.80;;;21.70;99.90;;;;;;4973668;28;20166;-76
2021/07/18 07:40:13;;;;;;;12.43;6.40;;;21.70;99.90;;;;;;4985632;28;20039;-77
2021/07/18 07:42:39;;;;;;;11.63;7.00;;;21.70;99.90;;;;;;4992977;28;20382;-75
2021/07/18 07:45:09;;;;;;;11.45;6.53;;;21.80;99.90;;;;;;4992482;28;20027;-76
2021/07/18 07:47:35;;;;;;;19.23;7.35;;;21.80;99.90;;;;;;4974044;28;20023;-76
2021/07/18 07:50:00;;;;;;;12.80;5.60;;;21.80;99.90;;;;;;4993074;28;20081;-76
2021/07/18 07:52:26;;;;;;;13.38;6.43;;;21.80;99.90;;;;;;4992730;28;20057;-75
2021/07/18 07:54:52;;;;;;;10.65;4.90;;;21.80;99.90;;;;;;4988458;28;20053;-75
2021/07/18 07:57:17;;;;;;;15.02;5.28;;;21.90;99.90;;;;;;5000252;28;20018;-75
2021/07/18 07:59:43;;;;;;;12.65;4.90;;;21.80;99.90;;;;;;4991720;28;20129;-75
2021/07/18 08:02:09;;;;;;;11.35;4.80;;;21.90;99.90;;;;;;4992035;28;20028;-75
2021/07/18 08:04:34;;;;;;;12.13;4.95;;;21.90;99.90;;;;;;4992221;28;20030;-75
2021/07/18 08:07:00;;;;;;;10.38;4.43;;;21.90;99.90;;;;;;4992217;28;20026;-76
2021/07/18 08:09:26;;;;;;;7.80;3.83;;;21.90;99.90;;;;;;4991931;28;20022;-75
2021/07/18 08:11:52;;;;;;;9.73;3.80;;;21.90;99.90;;;;;;4991150;28;20053;-76
2021/07/18 08:14:17;;;;;;;8.60;3.67;;;21.90;99.90;;;;;;4991991;28;20093;-77
2021/07/18 08:16:43;;;;;;;14.07;3.95;;;21.90;99.90;;;;;;4990866;28;20026;-76
2021/07/18 08:19:09;;;;;;;6.72;3.25;;;21.90;99.90;;;;;;4991635;28;20122;-75
2021/07/18 08:21:35;;;;;;;9.77;3.80;;;21.90;99.90;;;;;;4991363;28;20031;-74
2021/07/18 08:24:00;;;;;;;6.15;3.38;;;21.90;99.90;;;;;;4991105;28;20034;-75
2021/07/18 08:26:26;;;;;;;10.45;3.67;;;21.90;99.90;;;;;;4991814;28;20391;-75
2021/07/18 08:28:52;;;;;;;8.50;3.70;;;22.00;99.90;;;;;;4990964;28;20399;-76
2021/07/18 08:31:17;;;;;;;10.77;3.80;;;22.00;99.90;;;;;;4991460;28;20027;-75
2021/07/18 08:33:44;;;;;;;10.43;3.13;;;21.90;99.90;;;;;;4991209;28;20113;-75
2021/07/18 08:36:11;;;;;;;10.50;3.60;;;21.90;99.90;;;;;;4990868;28;21732;-75
2021/07/18 08:38:36;;;;;;;7.32;2.88;;;22.00;99.90;;;;;;4990961;28;20023;-75
2021/07/18 08:41:02;;;;;;;7.85;2.72;;;22.00;99.90;;;;;;4990720;28;20037;-74
2021/07/18 08:43:28;;;;;;;9.43;3.25;;;22.00;99.90;;;;;;4991158;28;20517;-74
2021/07/18 08:45:54;;;;;;;6.60;3.35;;;22.00;99.90;;;;;;4990966;28;20042;-74
2021/07/18 08:48:20;;;;;;;5.78;2.63;;;22.00;99.90;;;;;;4991618;28;20467;-75
2021/07/18 08:50:48;;;;;;;7.60;2.78;;;22.00;99.90;;;;;;4991443;28;20398;-74
2021/07/18 08:53:14;;;;;;;8.60;2.70;;;22.00;99.90;;;;;;4991751;28;20113;-77
2021/07/18 08:55:40;;;;;;;7.07;2.53;;;22.00;99.90;;;;;;4991250;28;20034;-75
2021/07/18 08:58:07;;;;;;;7.93;3.00;;;22.00;99.90;;;;;;4991212;28;20529;-74
2021/07/18 09:00:33;;;;;;;7.90;2.92;;;22.00;99.90;;;;;;4991164;28;20057;-74
2021/07/18 09:02:58;;;;;;;5.63;2.25;;;22.10;99.90;;;;;;4991466;28;20487;-74
2021/07/18 09:05:24;;;;;;;4.43;2.38;;;22.00;99.90;;;;;;4990674;28;20018;-75
2021/07/18 09:07:52;;;;;;;5.28;2.28;;;22.10;99.90;;;;;;4991099;28;20474;-76
2021/07/18 09:10:23;;;;;;;7.55;2.00;;;22.10;99.90;;;;;;4989594;28;20065;-76
2021/07/18 09:13:02;;;;;;;5.63;2.75;;;22.10;99.90;;;;;;4991178;28;20034;-76
2021/07/18 09:15:51;;;;;;;5.47;2.20;;;22.10;99.90;;;;;;4986878;28;20401;-75
2021/07/18 09:18:26;;;;;;;7.03;2.22;;;22.10;99.90;;;;;;4972138;28;20050;-76
2021/07/18 09:20:57;;;;;;;6.85;2.00;;;22.10;99.90;;;;;;4971690;28;20035;-74
2021/07/18 09:23:25;;;;;;;7.05;2.30;;;22.10;99.90;;;;;;4972022;28;20057;-76
2021/07/18 09:25:52;;;;;;;7.32;2.50;;;22.10;99.90;;;;;;4989291;28;20058;-75
2021/07/18 09:28:21;;;;;;;8.05;2.47;;;22.10;99.90;;;;;;4989424;28;20022;-75
2021/07/18 09:30:49;;;;;;;5.93;2.75;;;22.10;99.90;;;;;;4988865;28;20398;-75
2021/07/18 09:33:23;;;;;;;7.03;2.30;;;22.10;99.90;;;;;;4991350;28;20034;-75
2021/07/18 09:35:49;;;;;;;4.75;1.85;;;22.20;99.90;;;;;;4993159;28;20029;-75
2021/07/18 09:38:22;;;;;;;4.90;2.10;;;22.10;99.90;;;;;;4994950;28;20034;-75
2021/07/18 09:40:58;;;;;;;4.25;1.92;;;22.20;99.90;;;;;;4994682;28;20034;-75
2021/07/18 09:43:28;;;;;;;3.47;1.65;;;22.20;99.90;;;;;;4994694;28;20109;-75
2021/07/18 09:46:06;;;;;;;3.63;2.10;;;22.10;99.90;;;;;;4994602;28;20398;-75
2021/07/18 09:48:44;;;;;;;3.38;1.88;;;22.10;99.90;;;;;;4994556;28;20050;-75
2021/07/18 09:51:14;;;;;;;5.80;1.80;;;22.10;99.90;;;;;;5024820;28;20033;-75
2021/07/18 09:53:42;;;;;;;4.30;1.92;;;22.20;99.90;;;;;;4994587;28;20054;-75
2021/07/18 09:56:08;;;;;;;7.05;2.35;;;22.20;99.90;;;;;;4994798;28;20026;-75
2021/07/18 09:58:39;;;;;;;4.78;2.03;;;22.20;99.90;;;;;;4994762;28;20023;-76
2021/07/18 10:01:15;;;;;;;4.28;1.75;;;22.10;99.90;;;;;;4994971;28;20077;-75
2021/07/18 10:03:44;;;;;;;;;;;22.10;99.90;;;;;;4994679;28;20053;-75
2021/07/18 10:06:15;;;;;;;5.43;2.08;;;22.20;99.90;;;;;;5009429;28;19912;-74
2021/07/18 10:08:52;;;;;;;4.45;1.98;;;22.10;99.90;;;;;;4992900;28;20031;-75
2021/07/18 10:11:22;;;;;;;4.20;2.17;;;22.10;99.90;;;;;;4992866;28;20045;-75
2021/07/18 10:13:49;;;;;;;3.42;1.67;;;22.20;99.90;;;;;;4994120;28;20026;-75
2021/07/18 10:16:17;;;;;;;4.15;1.70;;;22.20;99.90;;;;;;4994180;28;20049;-75
2021/07/18 10:18:45;;;;;;;6.20;2.05;;;22.20;99.90;;;;;;4993767;28;20022;-75
2021/07/18 10:21:13;;;;;;;7.05;1.60;;;22.10;99.90;;;;;;4993949;28;20069;-75
2021/07/18 10:23:41;;;;;;;4.07;1.77;;;22.20;99.90;;;;;;4994209;28;20018;-75
2021/07/18 10:26:07;;;;;;;4.00;1.80;;;22.20;99.90;;;;;;4994156;28;20085;-75
2021/07/18 10:28:33;;;;;;;5.25;2.30;;;22.10;99.90;;;;;;5009185;28;20022;-75
2021/07/18 10:31:23;;;;;;;7.57;1.75;;;22.20;99.90;;;;;;4994021;28;20096;-75
2021/07/18 10:33:51;;;;;;;4.13;1.58;;;22.20;99.90;;;;;;5001602;28;20060;-75
2021/07/18 10:36:21;;;;;;;4.63;1.98;;;22.20;99.90;;;;;;4992495;28;20487;-75
2021/07/18 10:38:46;;;;;;;4.05;2.17;;;22.10;99.90;;;;;;4993631;28;20022;-75
2021/07/18 10:41:14;;;;;;;5.45;1.70;;;22.20;99.90;;;;;;4993895;28;20435;-76
2021/07/18 10:43:50;;;;;;;3.72;1.60;;;22.20;99.90;;;;;;4993589;28;20034;-75
2021/07/18 10:46:42;;;;;;;3.38;1.60;;;22.20;99.90;;;;;;4993019;28;20027;-75
2021/07/18 10:49:12;;;;;;;4.57;1.58;;;22.20;99.90;;;;;;4994062;28;20026;-75
2021/07/18 10:51:40;;;;;;;4.07;1.75;;;22.20;99.90;;;;;;4993998;28;20125;-75
2021/07/18 10:54:08;;;;;;;3.45;1.88;;;22.20;99.90;;;;;;4994008;28;20022;-75
2021/07/18 10:56:46;;;;;;;3.53;1.88;;;22.10;99.90;;;;;;4993683;28;20446;-76
2021/07/18 10:59:34;;;;;;;3.03;1.70;;;22.20;99.90;;;;;;4993083;28;20058;-76
2021/07/18 11:02:10;;;;;;;3.08;1.67;;;22.20;99.90;;;;;;4993078;28;20142;-75
2021/07/18 11:04:45;;;;;;;2.95;1.70;;;22.20;99.90;;;;;;4993642;28;20018;-75
2021/07/18 11:07:20;;;;;;;;;;;22.20;99.90;;;;;;4993603;28;20034;-75
2021/07/18 11:10:09;;;;;;;3.25;1.38;;;22.10;99.90;;;;;;4993006;28;19913;-75
2021/07/18 11:12:38;;;;;;;2.65;1.25;;;22.20;99.90;;;;;;4995271;28;20125;-75
2021/07/18 11:15:15;;;;;;;2.28;1.58;;;22.20;99.90;;;;;;4993020;28;20390;-76
2021/07/18 11:18:05;;;;;;;3.55;1.63;;;22.20;99.90;;;;;;4992618;28;20498;-75
2021/07/18 11:20:50;;;;;;;3.33;1.65;;;22.20;99.90;;;;;;4993088;28;20460;-75
2021/07/18 11:23:54;;;;;;;4.80;1.52;;;22.20;99.90;;;;;;4992983;28;20019;-75
2021/07/18 11:26:19;;;;;;;2.42;1.40;;;22.20;99.90;;;;;;4992913;28;20038;-75
2021/07/18 11:28:49;;;;;;;3.75;1.90;;;22.20;99.90;;;;;;4992784;28;20513;-76
2021/07/18 11:31:21;;;;;;;6.72;1.58;;;22.20;99.90;;;;;;4992929;28;20026;-76
2021/07/18 11:33:52;;;;;;;3.83;1.63;;;22.20;99.90;;;;;;4991217;28;20088;-76
2021/07/18 11:36:21;;;;;;;4.25;2.00;;;22.20;99.90;;;;;;4992741;28;20198;-76
2021/07/18 11:38:49;;;;;;;2.78;1.52;;;22.20;99.90;;;;;;5007993;28;20117;-76
2021/07/18 11:41:41;;;;;;;2.67;1.52;;;22.20;99.90;;;;;;4992666;28;20024;-76
2021/07/18 11:44:09;;;;;;;3.22;2.30;;;22.20;99.90;;;;;;4993707;28;20066;-76
2021/07/18 11:46:41;;;;;;;3.53;1.70;;;22.20;99.90;;;;;;4992860;28;20022;-77
2021/07/18 11:49:08;;;;;;;3.63;1.63;;;22.20;99.90;;;;;;4992521;28;20028;-76
2021/07/18 11:51:36;;;;;;;3.45;1.80;;;22.20;99.90;;;;;;4992306;28;20105;-76
2021/07/18 11:54:02;;;;;;;4.20;1.63;;;22.20;99.90;;;;;;4992129;28;20053;-76
2021/07/18 11:56:32;;;;;;;3.97;1.52;;;22.20;99.90;;;;;;4992188;28;20438;-76
2021/07/18 11:59:05;;;;;;;3.35;1.50;;;22.20;99.90;;;;;;4991849;28;20027;-76
2021/07/18 12:01:33;;;;;;;3.10;1.85;;;22.20;99.90;;;;;;4992479;28;20023;-76
2021/07/18 12:03:59;;;;;;;2.95;1.58;;;22.20;99.90;;;;;;4992019;28;20048;-76
2021/07/18 12:06:30;;;;;;;2.20;1.60;;;22.20;99.90;;;;;;4992359;28;20083;-76
2021/07/18 12:09:10;;;;;;;2.28;1.42;;;22.20;99.90;;;;;;4992117;28;20018;-76
2021/07/18 12:11:38;;;;;;;3.53;2.17;;;22.20;99.90;;;;;;4992473;28;20030;-76
2021/07/18 12:14:05;;;;;;;2.20;1.55;;;22.20;99.90;;;;;;4991909;28;20113;-76
2021/07/18 12:16:31;;;;;;;2.85;1.42;;;22.20;99.90;;;;;;4992124;28;20030;-76
2021/07/18 12:18:57;;;;;;;2.72;1.65;;;22.20;99.90;;;;;;4991629;28;20030;-77
2021/07/18 12:21:24;;;;;;;5.32;2.00;;;22.20;99.90;;;;;;4992157;28;20049;-76
2021/07/18 12:24:22;;;;;;;3.65;2.08;;;22.20;99.90;;;;;;4991787;28;20138;-76
2021/07/18 12:26:57;;;;;;;4.00;1.88;;;22.20;99.90;;;;;;4991740;28;20025;-76
2021/07/18 12:29:23;;;;;;;3.72;1.70;;;22.20;99.90;;;;;;4991912;28;20037;-76
2021/07/18 12:31:50;;;;;;;2.53;1.63;;;22.20;99.90;;;;;;4991605;28;20034;-76
2021/07/18 12:34:17;;;;;;;2.60;1.70;;;22.20;99.90;;;;;;4992030;28;20069;-76
2021/07/18 12:37:04;;;;;;;3.50;1.63;;;22.30;99.90;;;;;;4991538;28;20142;-77
2021/07/18 12:39:35;;;;;;;4.07;1.50;;;22.20;99.90;;;;;;4991755;28;20042;-77
2021/07/18 12:42:05;;;;;;;3.78;1.92;;;22.20;99.90;;;;;;4991406;28;20018;-76
2021/07/18 12:44:36;;;;;;;3.88;2.05;;;22.30;99.90;;;;;;4991687;28;20494;-77
2021/07/18 12:47:34;;;;;;;2.55;1.92;;;22.20;99.90;;;;;;4991435;28;20022;-77
2021/07/18 12:50:09;;;;;;;2.50;1.83;;;22.30;99.90;;;;;;5023344;28;20545;-76